Hauptseite
METAR-TAF:

METAR-TAF

Flughäfen :

Flughafen Lübeck

Lübeck, Deutschland

Breite: 53-49N, Länge: 010-42E, Höhe: 14 m

Beobachtung

Neuester Wetterbericht von vor 9 Stunden und 8 Minuten, um 18:50 UTC
Wind 6 kt aus Ost
Temperatur 26°C
Luftfeuchtigkeit 48%
Luftdruck 1009 hPa
Sichtweite 10 km oder mehr
keine Wolken unter 1500 m und keine Kumulonimbus oder Gewitterwolken

METAR: EDHL 241850Z 09006KT CAVOK 26/14 Q1009

Zeit: 05:58 (03:58 UTC)

Prognose

Neuester Wetterbericht von vor 10 Stunden und 58 Minuten, um 17:00 UTC
Gültige Prognose vom 24 um 18 UTC bis 24 um 21 UTC
Wind 7 kt aus Ost/Nordost
Sichtweite 10 km oder mehr
keine Wolken unter 1500 m und keine Kumulonimbus oder Gewitterwolken
Zeitweise
vom 24 um 18 UTC bis 24 um 21 UTC
Wind 3 kt aus unterschiedlichen Richtungen

TAF: EDHL 241700Z 2418/2421 07007KT CAVOK TEMPO 2418/2421 VRB03KT

Wetterbeobachtungen und Prognosen von mehr als 4000 Flughäfen (METAR und TAF Bericht).

Die verfügbaren Stationen werden durch gelbe und rote Markierungen auf der Karte dargestellt.

Führen Sie die Maus auf sie, um den Namen der Station zu sehen.

Darauf klicken, um die Beobachtung von Wetterbeobachtungen und Prognosen zu sehen.

Um die Karte zu ändern : klicken Sie auf den grünen Tasten mit einem schwarzen Kreuz Zum Vergrößern, auf den grünen Button mit einem Gedankenstrich zu verkleinern, oder auf die grünen Pfeile für benachbarte Karten.


METAR-TAF: